Flight Track Log - Related Links

Times and Time Zones

All times are in EDT time to prevent confusion due to time zone crossing. See the EJA396 flight status page for this flight to view local times or setup timezone preferences in your user account.

Time Position Orientation Groundspeed Altitude Reporting Facility
EDT Latitude Longitude Course Direction KTS MPH feet Rate Location/Type
Tue 02:20:54 PM 43.6531 -70.2422 251° West 189 217 2,800  Level Boston Center
Tue 02:21:55 PM 43.6983 -70.2119 26° Northeast 217 250 5,300 3,097 Climbing Boston Center
Tue 02:22:58 PM 43.7500 -70.2744 319° Northwest 260 299 9,200 3,435 Climbing Boston Center
Tue 02:23:59 PM 43.7656 -70.3758 282° West 265 305 12,400 3,049 Climbing Boston Center
Tue 02:25:00 PM 43.7550 -70.4978 263° West 317 365 15,400 2,754 Climbing Boston Center
Tue 02:26:00 PM 43.6922 -70.8979 251° West  Level FlightAware Approximate
Tue 02:26:01 PM 43.7425 -70.6219 262° West 324 373 18,000  Level Boston Center
Tue 02:27:03 PM 43.7317 -70.7503 263° West 327 376 20,900 2,459 Climbing Boston Center
Tue 02:28:03 PM 43.7039 -70.8744 253° West 334 384 23,000 2,083 Climbing Boston Center
Tue 02:29:04 PM 43.6178 -70.9692 219° Southwest 380 437 25,100 1,918 Climbing Boston Center
Tue 02:30:05 PM 43.5533 -71.0822 232° Southwest 378 435 26,900 1,707 Climbing Boston Center
Tue 02:31:07 PM 43.5464 -71.2258 266° West 377 434 28,600 1,672 Climbing Boston Center
Tue 02:32:07 PM 43.5519 -71.3678 273° West 369 425 30,300 1,645 Climbing Boston Center
Tue 02:33:11 PM 43.5589 -71.5092 274° West 369 425 32,000 1,632 Climbing Boston Center
Tue 02:34:12 PM 43.5644 -71.6517 273° West 369 425 33,700 1,672 Climbing Boston Center
Tue 02:35:13 PM 43.5708 -71.7931 274° West 369 425 35,400 1,686 Climbing Boston Center
Tue 02:36:13 PM 43.5775 -71.9297 274° West 367 422 37,100 1,415 Climbing Boston Center
Tue 02:37:16 PM 43.5839 -72.0658 274° West 360 414 38,300 1,016 Climbing Boston Center
Tue 02:38:17 PM 43.5894 -72.2014 273° West 355 409 39,200 984 Climbing Boston Center
Tue 02:39:18 PM 43.5964 -72.3675 273° West 358 412 40,300 893 Climbing Boston Center
Tue 02:40:18 PM 43.6022 -72.5061 273° West 359 413 41,000 347 Climbing Boston Center
Tue 02:41:19 PM 43.6075 -72.6494 273° West 371 427 41,000  Level Boston Center
Tue 02:42:22 PM 43.6133 -72.7994 273° West 386 444 41,000  Level Boston Center
Tue 02:43:23 PM 43.6186 -72.9547 273° West 399 459 41,000  Level Boston Center
Tue 02:44:23 PM 43.6250 -73.1214 273° West 404 465 41,000  Level Boston Center
Tue 02:45:24 PM 43.6300 -73.2781 273° West 407 468 41,000  Level Boston Center
Tue 02:46:26 PM 43.6353 -73.4356 273° West 407 468 41,000  Level Boston Center
Tue 02:47:27 PM 43.6397 -73.5925 272° West 408 470 41,000  Level Boston Center
Tue 02:48:30 PM 43.6444 -73.7481 272° West 408 470 41,000  Level Boston Center
Tue 02:49:31 PM 43.6486 -73.9044 272° West 408 470 41,000  Level Boston Center
Tue 02:50:32 PM 43.6531 -74.0606 272° West 408 470 41,000  Level Boston Center
Tue 02:51:32 PM 43.6575 -74.2244 272° West 408 470 41,000  Level Boston Center
Tue 02:52:34 PM 43.6608 -74.3806 272° West 408 470 41,000  Level Boston Center
Tue 02:53:35 PM 43.6644 -74.5378 272° West 409 471 41,000  Level Boston Center
Tue 02:54:38 PM 43.6678 -74.6956 272° West 410 472 41,000  Level Boston Center
Tue 02:55:39 PM 43.6719 -74.8850 272° West 413 475 41,000  Level Boston Center
Tue 02:56:39 PM 43.6756 -75.0439 272° West 415 478 41,000 198 Level Boston Center
Tue 02:57:40 PM 43.6778 -75.2008 271° West 415 478 41,400 435 Climbing Boston Center
Tue 02:58:43 PM 43.6803 -75.3619 271° West 416 479 41,900 484 Climbing Boston Center
Tue 02:59:44 PM 43.6822 -75.5153 271° West 414 476 42,400 488 Climbing Boston Center
Tue 03:00:46 PM 43.6839 -75.6700 271° West 411 473 42,900 295 Climbing Boston Center
Tue 03:01:46 PM 43.6858 -75.8250 271° West 407 468 43,000 50 Climbing Boston Center
Tue 03:02:47 PM 43.6867 -76.0125 270° West 407 468 43,000  Level Boston Center
Tue 03:03:50 PM 43.6894 -76.1725 271° West 413 475 43,000  Level Boston Center
Tue 03:04:52 PM 43.6897 -76.3294 270° West 415 478 43,000  Level Boston Center
Tue 03:05:52 PM 43.6903 -76.4883 270° West 415 478 43,000  Level Boston Center
Tue 03:06:52 PM 43.6908 -76.6475 270° West 415 478 43,000  Level Boston Center
Tue 03:07:53 PM 43.6914 -76.8244 270° West 415 478 43,000  Level Boston Center
Tue 03:09:02 PM 43.6833 -76.9833 266° West 420 483 43,000  Level Toronto Center
Tue 03:10:02 PM 43.6833 -77.1500 270° West 420 483 43,000  Level Toronto Center
Tue 03:11:02 PM 43.6667 -77.3000 261° West 420 483 43,000  Level Toronto Center
Tue 03:12:02 PM 43.6833 -77.4667 278° West 420 483 43,000  Level Toronto Center
Tue 03:13:02 PM 43.6833 -77.6333 270° West 420 483 43,000  Level Toronto Center
Tue 03:14:02 PM 43.6833 -77.7833 270° West 420 483 43,000  Level Toronto Center
Tue 03:15:02 PM 43.6667 -77.9500 262° West 420 483 43,000  Level Toronto Center
Tue 03:16:02 PM 43.6667 -78.1167 270° West 420 483 43,000  Level Toronto Center
Tue 03:17:02 PM 43.6667 -78.2667 270° West 420 483 43,000  Level Toronto Center
Tue 03:18:02 PM 43.6667 -78.4333 270° West 420 483 43,000  Level Toronto Center
Tue 03:19:02 PM 43.6833 -78.6000 278° West 410 472 43,000  Level Toronto Center
Tue 03:20:02 PM 43.6667 -78.7500 261° West 410 472 43,000  Level Toronto Center
Tue 03:21:02 PM 43.6667 -78.9000 270° West 410 472 43,000  Level Toronto Center
Tue 03:22:02 PM 43.6667 -79.0500 270° West 410 472 43,000  Level Toronto Center
Tue 03:23:02 PM 43.6667 -79.2167 270° West 410 472 43,000  Level Toronto Center
Tue 03:24:02 PM 43.6667 -79.3833 270° West 410 472 43,000  Level Toronto Center
Tue 03:25:02 PM 43.6500 -79.5167 260° West 410 472 43,000  Level Toronto Center
Tue 03:26:02 PM 43.6500 -79.7000 270° West 410 472 43,000  Level Toronto Center
Tue 03:27:02 PM 43.6500 -79.8333 270° West 420 483 43,000  Level Toronto Center
Tue 03:28:02 PM 43.6500 -80.0167 270° West 410 472 43,000  Level Toronto Center
Tue 03:29:02 PM 43.6333 -80.1667 261° West 410 472 43,000  Level Toronto Center
Tue 03:30:02 PM 43.6333 -80.3500 270° West 420 483 43,000  Level Toronto Center
Tue 03:31:02 PM 43.6333 -80.5000 270° West 420 483 43,000  Level Toronto Center
Tue 03:32:02 PM 43.6333 -80.6500 270° West 420 483 43,000  Level Toronto Center
Tue 03:33:02 PM 43.6167 -80.8333 263° West 420 483 43,000  Level Toronto Center
Tue 03:34:02 PM 43.6000 -80.9667 260° West 420 483 43,000  Level Toronto Center
Tue 03:35:02 PM 43.6000 -81.1500 270° West 420 483 43,000  Level Toronto Center
Tue 03:36:02 PM 43.6000 -81.2833 270° West 420 483 43,000  Level Toronto Center
Tue 03:37:02 PM 43.6000 -81.4667 270° West 420 483 43,000  Level Toronto Center
Tue 03:38:02 PM 43.5833 -81.6167 261° West 420 483 43,000  Level Toronto Center
Tue 03:39:02 PM 43.5833 -81.8000 270° West 410 472 43,000  Level Toronto Center
Tue 03:40:02 PM 43.5667 -81.9333 260° West 410 472 43,000  Level Toronto Center
Tue 03:41:02 PM 43.5667 -82.1000 270° West 410 472 43,000  Level Toronto Center
Tue 03:42:02 PM 43.5667 -82.2500 270° West 400 460 43,000  Level Toronto Center
Tue 03:43:02 PM 43.5500 -82.4000 261° West 400 460 43,000  Level Toronto Center
Tue 03:44:02 PM 43.5500 -82.5500 270° West 410 472 43,000  Level Toronto Center
Tue 03:45:02 PM 43.5333 -82.7167 262° West 410 472 43,000  Level Toronto Center
Tue 03:46:02 PM 43.5333 -82.8833 270° West 410 472 43,000 400 Level Toronto Center
Tue 03:47:02 PM 43.5167 -83.0333 261° West 410 472 43,800 800 Climbing Toronto Center
Tue 03:48:02 PM 43.5167 -83.2000 270° West 400 460 44,600 600 Climbing Toronto Center
Tue 03:49:02 PM 43.5000 -83.3333 260° West 390 449 45,000 200 Climbing Toronto Center
Tue 03:50:02 PM 43.5000 -83.4667 270° West 400 460 45,000  Level Toronto Center
Tue 03:51:06 PM 43.5011 -83.6544 271° West 399 459 45,000  Level Minneapolis Center
Tue 03:52:07 PM 43.4925 -83.8094 266° West 404 465 45,000  Level Minneapolis Center
Tue 03:53:09 PM 43.4833 -83.9667 265° West 409 471 45,000  Level Minneapolis Center
Tue 03:54:10 PM 43.4736 -84.1242 265° West 412 474 45,000  Level Minneapolis Center
Tue 03:55:12 PM 43.4628 -84.2808 265° West 413 475 45,000  Level Minneapolis Center
Tue 03:56:13 PM 43.4531 -84.4375 265° West 413 475 45,000  Level Minneapolis Center
Tue 03:57:15 PM 43.4425 -84.5942 265° West 413 475 45,000  Level Minneapolis Center
Tue 03:58:17 PM 43.4303 -84.7844 265° West 413 475 45,000  Level Minneapolis Center
Tue 03:59:19 PM 43.4189 -84.9419 264° West 413 475 45,000  Level Minneapolis Center
Tue 04:00:20 PM 43.4089 -85.0994 265° West 414 476 45,000  Level Minneapolis Center
Tue 04:01:01 PM 43.4025 -85.1925 265° West 417 480 45,000  Level Chicago Center
Tue 04:02:03 PM 43.3911 -85.3500 264° West 416 479 45,000  Level Chicago Center
Tue 04:03:04 PM 43.3772 -85.5372 264° West 416 479 45,000  Level Chicago Center
Tue 04:04:06 PM 43.3658 -85.6942 264° West 416 479 45,000  Level Chicago Center
Tue 04:05:07 PM 43.3539 -85.8514 264° West 416 479 45,000  Level Chicago Center
Tue 04:06:09 PM 43.3417 -86.0081 264° West 416 479 45,000  Level Chicago Center
Tue 04:07:11 PM 43.3294 -86.1653 264° West 417 480 45,000  Level Chicago Center
Tue 04:08:12 PM 43.3169 -86.3189 264° West 408 470 45,000  Level Chicago Center
Tue 04:09:14 PM 43.3008 -86.5061 263° West 411 473 45,000  Level Chicago Center
Tue 04:10:16 PM 43.2881 -86.6619 264° West 411 473 45,000  Level Chicago Center
Tue 04:11:17 PM 43.2744 -86.8172 263° West 411 473 45,000  Level Chicago Center
Tue 04:12:19 PM 43.2622 -86.9728 264° West 411 473 45,000  Level Chicago Center
Tue 04:13:21 PM 43.2475 -87.1308 263° West 418 481 45,000  Level Chicago Center
Tue 04:14:22 PM 43.2331 -87.2875 263° West 416 479 45,000  Level Chicago Center
Tue 04:15:24 PM 43.2164 -87.4644 263° West 416 479 45,000  Level Chicago Center
Tue 04:16:26 PM 43.2017 -87.6214 263° West 414 476 45,000  Level Chicago Center
Tue 04:17:28 PM 43.1869 -87.7797 263° West 417 480 45,000  Level Chicago Center
Tue 04:18:30 PM 43.1722 -87.9358 263° West 415 478 45,000  Level Chicago Center
Tue 04:19:32 PM 43.1539 -88.1278 263° West 416 479 45,000  Level Chicago Center
Tue 04:20:33 PM 43.1375 -88.2869 262° West 418 481 45,000  Level Chicago Center
Tue 04:21:35 PM 43.1219 -88.4464 262° West 419 482 45,000  Level Chicago Center
Tue 04:22:37 PM 43.1056 -88.6058 262° West 420 483 45,000  Level Chicago Center
Tue 04:23:39 PM 43.0897 -88.7636 262° West 417 480 45,000  Level Chicago Center
Tue 04:24:41 PM 43.0792 -88.9239 265° West 418 481 45,000  Level Chicago Center
Tue 04:25:43 PM 43.0742 -89.0847 268° West 420 483 45,000  Level Chicago Center
Tue 04:26:45 PM 43.0717 -89.2458 269° West 422 486 45,000  Level Chicago Center
Tue 04:27:47 PM 43.0683 -89.4364 269° West 418 481 45,000  Level Chicago Center
Tue 04:28:49 PM 43.0667 -89.5950 269° West 418 481 45,000  Level Chicago Center
Tue 04:29:51 PM 43.0664 -89.7542 270° West 418 481 45,000  Level Chicago Center
Tue 04:30:53 PM 43.0672 -89.9128 270° West 418 481 45,000  Level Chicago Center
Tue 04:31:55 PM 43.0597 -90.0739 266° West 432 497 45,000  Level Chicago Center
Tue 04:32:57 PM 43.0425 -90.2244 261° West 412 474 45,000  Level Chicago Center
Tue 04:33:59 PM 43.0281 -90.3781 263° West 409 471 45,000  Level Chicago Center
Tue 04:35:01 PM 43.0064 -90.5603 261° West 409 471 45,000  Level Chicago Center
Tue 04:35:51 PM 42.9914 -90.6800 260° West 408 470 45,000  Level Chicago Center
Tue 04:36:53 PM 42.9744 -90.8297 261° West 405 466 45,000  Level Chicago Center
Tue 04:37:55 PM 42.9575 -90.9819 261° West 411 473 45,000  Level Chicago Center
Tue 04:38:57 PM 42.9394 -91.1319 261° West 409 471 45,000  Level Chicago Center
Tue 04:39:38 PM 42.9250 -91.2531 261° West 408 470 45,000  Level Minneapolis Center
Tue 04:40:40 PM 42.9081 -91.4031 261° West 408 470 45,000  Level Minneapolis Center
Tue 04:41:41 PM 42.8908 -91.5519 261° West 408 470 45,000  Level Minneapolis Center
Tue 04:42:43 PM 42.8678 -91.7328 260° West 408 470 45,000  Level Minneapolis Center
Tue 04:43:45 PM 42.8497 -91.8778 260° West 408 470 45,000  Level Minneapolis Center
Tue 04:44:47 PM 42.8308 -92.0267 260° West 407 468 45,000  Level Minneapolis Center
Tue 04:45:49 PM 42.8117 -92.1736 260° West 403 464 45,000  Level Minneapolis Center
Tue 04:46:51 PM 42.7925 -92.3208 260° West 401 461 45,000  Level Minneapolis Center
Tue 04:47:53 PM 42.7706 -92.4972 260° West 398 458 45,000  Level Minneapolis Center
Tue 04:48:54 PM 42.7508 -92.6425 260° West 396 456 45,000  Level Minneapolis Center
Tue 04:49:56 PM 42.7311 -92.7853 259° West 394 453 45,000  Level Minneapolis Center
Tue 04:50:58 PM 42.7119 -92.9294 260° West 391 450 45,000  Level Minneapolis Center
Tue 04:52:00 PM 42.6931 -93.0725 260° West 388 447 45,000  Level Minneapolis Center
Tue 04:53:02 PM 42.6733 -93.2128 259° West 386 444 45,000  Level Minneapolis Center
Tue 04:54:04 PM 42.6503 -93.3803 259° West 384 442 45,000  Level Minneapolis Center
Tue 04:55:06 PM 42.6308 -93.5231 260° West 384 442 45,000  Level Minneapolis Center
Tue 04:56:07 PM 42.6128 -93.6622 260° West 383 441 45,000  Level Minneapolis Center
Tue 04:57:09 PM 42.5911 -93.8011 258° West 382 440 45,000  Level Minneapolis Center
Tue 04:58:11 PM 42.5717 -93.9403 259° West 381 438 45,000  Level Minneapolis Center
Tue 04:59:16 PM 42.5461 -94.1058 258° West 380 437 45,000  Level Minneapolis Center
Tue 05:00:18 PM 42.5261 -94.2447 259° West 380 437 45,000  Level Minneapolis Center
Tue 05:01:19 PM 42.5064 -94.3836 259° West 380 437 45,000  Level Minneapolis Center
Tue 05:02:21 PM 42.4853 -94.5219 258° West 379 436 45,000  Level Minneapolis Center
Tue 05:03:23 PM 42.4628 -94.6700 258° West 379 436 45,000  Level Minneapolis Center
Tue 05:04:25 PM 42.4419 -94.8086 259° West 379 436 45,000  Level Minneapolis Center
Tue 05:05:27 PM 42.4208 -94.9489 259° West 379 436 45,000  Level Minneapolis Center
Tue 05:06:29 PM 42.3947 -95.1147 258° West 379 436 45,000  Level Minneapolis Center
Tue 05:07:30 PM 42.3736 -95.2539 258° West 379 436 45,000  Level Minneapolis Center
Tue 05:08:32 PM 42.3514 -95.3917 258° West 378 435 45,000  Level Minneapolis Center
Tue 05:09:34 PM 42.3294 -95.5317 258° West 379 436 45,000  Level Minneapolis Center
Tue 05:10:36 PM 42.3072 -95.6689 258° West 378 435 45,000  Level Minneapolis Center
Tue 05:11:37 PM 42.2850 -95.8081 258° West 378 435 45,000  Level Minneapolis Center
Tue 05:12:39 PM 42.2622 -95.9464 258° West 380 437 45,000  Level Minneapolis Center
Tue 05:13:41 PM 42.2347 -96.1136 258° West 380 437 45,000  Level Minneapolis Center
Tue 05:14:43 PM 42.2122 -96.2525 258° West 380 437 45,000  Level Minneapolis Center
Tue 05:15:44 PM 42.1881 -96.3919 257° West 381 438 45,000  Level Minneapolis Center
Tue 05:16:46 PM 42.1642 -96.5322 257° West 383 441 45,000  Level Minneapolis Center
Tue 05:17:48 PM 42.1408 -96.6722 257° West 383 441 45,000  Level Minneapolis Center
Tue 05:18:50 PM 42.1175 -96.8117 257° West 383 441 45,000  Level Minneapolis Center
Tue 05:19:51 PM 42.0881 -96.9817 257° West 385 443 45,000  Level Minneapolis Center
Tue 05:20:53 PM 42.0639 -97.1222 257° West 386 444 45,000 -242 Level Minneapolis Center
Tue 05:21:55 PM 42.0383 -97.2628 256° West 386 444 44,500 -532 Descending Minneapolis Center
Tue 05:22:57 PM 42.0131 -97.4083 257° West 397 457 43,900 -585 Descending Minneapolis Center
Tue 05:23:58 PM 41.9869 -97.5575 257° West 405 466 43,300 -439 Descending Minneapolis Center
Tue 05:25:00 PM 41.9600 -97.7075 256° West 411 473 43,000 -145 Descending Minneapolis Center
Tue 05:26:02 PM 41.9317 -97.8572 256° West 412 474 43,000  Level Minneapolis Center
Tue 05:27:03 PM 41.8997 -98.0350 256° West 411 473 43,000  Level Minneapolis Center
Tue 05:28:05 PM 41.8753 -98.1692 256° West 411 473 43,000  Level Minneapolis Center
Tue 05:29:07 PM 41.8481 -98.3189 256° West 411 473 43,000  Level Minneapolis Center
Tue 05:30:08 PM 41.8147 -98.4956 256° West 411 473 43,000  Level Minneapolis Center
Tue 05:31:10 PM 41.7872 -98.6433 256° West 411 473 43,000  Level Minneapolis Center
Tue 05:32:12 PM 41.7581 -98.7922 255° West 411 473 43,000  Level Minneapolis Center
Tue 05:33:14 PM 41.7303 -98.9394 256° West 411 473 43,000  Level Minneapolis Center
Tue 05:34:15 PM 41.7022 -99.0872 256° West 411 473 43,000  Level Minneapolis Center
Tue 05:35:17 PM 41.6739 -99.2342 256° West 411 473 43,000  Level Minneapolis Center
Tue 05:36:16 PM 41.6444 -99.3819 255° West 412 474 43,000  Level Denver Center
Tue 05:37:18 PM 41.6136 -99.5306 255° West 413 475 43,000  Level Denver Center
Tue 05:38:20 PM 41.5786 -99.7078 255° West 413 475 43,000  Level Denver Center
Tue 05:39:22 PM 41.5514 -99.8453 255° West 413 475 43,000  Level Denver Center
Tue 05:40:24 PM 41.5183 -100.0114 255° West 413 475 43,000  Level Denver Center
Tue 05:41:25 PM 41.4894 -100.1519 255° West 414 476 43,000  Level Denver Center
Tue 05:42:27 PM 41.4458 -100.3125 250° West 414 476 43,000  Level Denver Center
Tue 05:43:29 PM 41.4067 -100.4492 249° West 414 476 43,000  Level Denver Center
Tue 05:44:31 PM 41.3592 -100.6094 248° West 415 478 43,000  Level Denver Center
Tue 05:45:32 PM 41.3186 -100.7461 248° West 416 479 43,000  Level Denver Center
Tue 05:46:34 PM 41.2717 -100.9061 249° West 418 481 43,000  Level Denver Center
Tue 05:47:36 PM 41.2294 -101.0436 248° West 419 482 43,000  Level Denver Center
Tue 05:48:38 PM 41.1886 -101.1828 249° West 421 484 43,000  Level Denver Center
Tue 05:49:39 PM 41.1394 -101.3433 248° West 422 486 43,000 -98 Level Denver Center
Tue 05:50:41 PM 41.0978 -101.4831 248° West 425 489 42,800 -919 Descending Denver Center
Tue 05:51:43 PM 41.0469 -101.6497 248° West 434 499 41,100 -1,355 Descending Denver Center
Tue 05:52:45 PM 41.0028 -101.7897 247° West 434 499 40,000 -532 Descending Denver Center
Tue 05:53:47 PM 40.9536 -101.9497 248° West 425 489 40,000  Level Denver Center
Tue 05:54:48 PM 40.9106 -102.0875 248° West 424 488 40,000  Level Denver Center
Tue 05:55:50 PM 40.8600 -102.2508 248° West 429 494 40,000  Level Denver Center
Tue 05:56:52 PM 40.8156 -102.3908 247° West 430 495 40,000  Level Denver Center
Tue 05:57:54 PM 40.7644 -102.5536 248° West 430 495 40,000  Level Denver Center
Tue 05:58:56 PM 40.7203 -102.6936 247° West 430 495 40,000  Level Denver Center
Tue 05:59:58 PM 40.6711 -102.8464 247° West 431 496 40,000  Level Denver Center
Tue 06:00:59 PM 40.6258 -102.9903 248° West 430 495 40,000  Level Denver Center
Tue 06:02:01 PM 40.5781 -103.1356 247° West 431 496 40,000  Level Denver Center
Tue 06:03:03 PM 40.5319 -103.2778 247° West 426 490 40,000  Level Denver Center
Tue 06:04:05 PM 40.4842 -103.4231 247° West 430 495 40,000 -1,210 Level Denver Center
Tue 06:05:07 PM 40.4283 -103.5944 247° West 428 493 37,500 -2,274 Descending Denver Center
Tue 06:06:09 PM 40.3814 -103.7392 247° West 431 496 35,300 -2,177 Descending Denver Center
Tue 06:07:11 PM 40.3331 -103.8814 246° West 431 496 33,000 -1,610 Descending Denver Center
Tue 06:08:12 PM 40.2842 -104.0267 246° West 433 498 32,000 -488 Descending Denver Center
Tue 06:09:14 PM 40.2339 -104.1781 247° West 447 514 32,000  Level Denver Center
Tue 06:10:16 PM 40.1842 -104.3294 247° West 451 519 32,000  Level Denver Center
Tue 06:11:18 PM 40.1231 -104.5092 246° West 452 520 32,000  Level Denver Center
Tue 06:12:20 PM 40.0711 -104.6608 246° West 456 525 32,000 -484 Level Denver Center
Tue 06:13:22 PM 40.0353 -104.8117 253° West 442 509 31,000 -1,210 Descending Denver Center
Tue 06:14:24 PM 40.0333 -104.9589 269° West 415 478 29,500 -1,452 Descending Denver Center
Tue 06:15:26 PM 40.0300 -105.1114 268° West 418 481 28,000 -1,597 Descending Denver Center
Tue 06:16:28 PM 40.0269 -105.2956 269° West 425 489 26,200 -1,610 Descending Denver Center
Tue 06:17:29 PM 40.0247 -105.4453 269° West 422 486 24,700 -1,073 Descending Denver Center
Tue 06:18:31 PM 40.0217 -105.5936 269° West 415 478 24,000 -339 Descending Denver Center
Tue 06:19:33 PM 40.0181 -105.7431 268° West 414 476 24,000  Level Denver Center
Tue 06:20:35 PM 40.0158 -105.8881 269° West 405 466 24,000  Level Denver Center
Tue 06:21:38 PM 40.0111 -106.0617 268° West 403 464 24,000 -816 Level Denver Center
Tue 06:22:40 PM 40.0081 -106.2042 268° West 399 459 22,300 -1,742 Descending Denver Center
Tue 06:23:42 PM 40.0050 -106.3342 268° West 390 449 20,400 -1,951 Descending Denver Center
Tue 06:24:43 PM 39.9536 -106.4528 241° Southwest 387 445 18,300 -2,000 Descending Denver Center
Tue 06:25:45 PM 39.8600 -106.5028 202° Southwest 369 425 16,300 -1,839 Descending Denver Center
Tue 06:26:47 PM 39.7756 -106.5383 198° South 332 382 14,500 -1,645 Descending Denver Center
Tue 06:27:49 PM 39.6986 -106.5797 202° Southwest 256 295 12,900 -1,500 Descending Denver Center
Tue 06:28:51 PM 39.6808 -106.6569 253° West 236 272 11,400 -1,355 Descending Denver Center
Tue 06:29:53 PM 39.6708 -106.7242 259° West 196 226 10,100 -1,161 Descending Denver Center
Tue 06:30:55 PM 39.6622 -106.7775 258° West 160 184 9,000 -1,016 Descending Denver Center
Tue 06:31:57 PM 39.6522 -106.8297 256° West 156 180 8,000 -968 Descending Denver Center
Tue 06:32:59 PM 39.6458 -106.8806 261° West 149 171 7,000 -726 Descending Denver Center
Tue 06:34:01 PM 39.6419 -106.9217 263° West 117 135 6,500 -484 Descending Denver Center
Tue 06:36:00 PM 39.6427 -106.9159 90° East  Level Estimated

Login

Don't have an account? Register now (free) for customized features, flight alerts, and more!